createdAt,value
2018-02-09T00:02:02.238Z,86.80
2018-02-09T00:04:29.890Z,87.60
2018-02-09T00:06:57.539Z,86.30
2018-02-09T00:09:26.097Z,85.70
2018-02-09T00:11:54.468Z,85.40
2018-02-09T00:14:22.113Z,85.40
2018-02-09T00:16:50.729Z,85.00
2018-02-09T00:19:19.209Z,84.90
2018-02-09T00:21:46.854Z,85.40
2018-02-09T00:24:15.002Z,86.20
2018-02-09T00:26:42.658Z,85.90
2018-02-09T00:29:10.296Z,85.70
2018-02-09T00:31:38.017Z,86.10
2018-02-09T00:34:05.659Z,86.90
2018-02-09T00:36:33.301Z,86.70
2018-02-09T00:41:28.653Z,86.10
2018-02-09T00:43:56.312Z,87.20
2018-02-09T00:46:25.265Z,88.10
2018-02-09T00:48:52.890Z,88.80
2018-02-09T00:51:20.535Z,88.50
2018-02-09T00:53:48.247Z,87.70
2018-02-09T00:56:15.888Z,87.30
2018-02-09T00:58:43.528Z,87.70
2018-02-09T01:01:11.276Z,88.40
2018-02-09T01:03:39.020Z,89.10
2018-02-09T01:06:06.647Z,90.00
2018-02-09T01:08:34.354Z,90.80
2018-02-09T01:13:41.192Z,89.40
2018-02-09T01:16:09.558Z,89.30
2018-02-09T01:18:40.974Z,88.50
2018-02-09T01:21:08.606Z,87.50
2018-02-09T01:23:36.258Z,87.50
2018-02-09T01:26:04.850Z,88.80
2018-02-09T01:28:32.572Z,90.90
2018-02-09T01:31:00.216Z,91.70
2018-02-09T01:33:29.142Z,91.20
2018-02-09T01:35:57.831Z,90.10
2018-02-09T01:38:25.469Z,90.50
2018-02-09T01:40:53.130Z,90.90
2018-02-09T01:43:20.833Z,90.30
2018-02-09T01:45:48.471Z,88.40
2018-02-09T01:48:16.108Z,88.00
2018-02-09T01:50:43.858Z,87.50
2018-02-09T01:53:12.418Z,87.20
2018-02-09T01:55:41.029Z,87.70
2018-02-09T01:58:08.757Z,87.40
2018-02-09T02:00:36.401Z,86.50
2018-02-09T02:03:04.038Z,86.40
2018-02-09T02:05:31.749Z,87.00
2018-02-09T02:07:59.477Z,87.00
2018-02-09T02:10:27.116Z,88.00
2018-02-09T02:12:54.832Z,89.00
2018-02-09T02:15:22.994Z,88.60
2018-02-09T02:17:50.628Z,88.60
2018-02-09T02:20:18.354Z,87.90
2018-02-09T02:22:45.989Z,87.60
2018-02-09T02:25:14.574Z,87.30
2018-02-09T02:27:43.223Z,87.60
2018-02-09T02:32:52.979Z,86.90
2018-02-09T02:37:49.183Z,87.60
2018-02-09T02:40:16.903Z,86.50
2018-02-09T02:42:44.550Z,86.20
2018-02-09T02:47:40.837Z,86.40
2018-02-09T02:50:08.471Z,86.90
2018-02-09T02:52:36.112Z,86.60
2018-02-09T02:55:04.649Z,86.50
2018-02-09T02:57:32.282Z,86.90
2018-02-09T03:00:01.960Z,87.10
2018-02-09T03:02:29.600Z,86.90
2018-02-09T03:04:58.073Z,86.10
2018-02-09T03:07:25.758Z,86.90
2018-02-09T03:09:53.603Z,86.80
2018-02-09T03:12:21.257Z,86.20
2018-02-09T03:14:48.893Z,86.20
2018-02-09T03:17:16.612Z,85.30
2018-02-09T03:19:44.269Z,85.30
2018-02-09T03:22:11.912Z,84.50
2018-02-09T03:24:39.609Z,84.70
2018-02-09T03:27:07.248Z,83.50
2018-02-09T03:29:34.896Z,82.50
2018-02-09T03:32:02.624Z,80.10
2018-02-09T03:34:30.279Z,79.30
2018-02-09T03:36:57.936Z,77.40
2018-02-09T03:39:25.892Z,76.60
2018-02-09T03:41:54.168Z,76.70
2018-02-09T03:44:21.831Z,76.60
2018-02-09T03:46:49.537Z,77.60
2018-02-09T03:49:17.183Z,78.30
2018-02-09T03:51:44.817Z,79.60
2018-02-09T03:56:51.625Z,78.70
2018-02-09T03:59:19.329Z,80.00
2018-02-09T04:04:14.628Z,81.80
2018-02-09T04:06:42.381Z,82.00
2018-02-09T04:09:10.714Z,82.00
2018-02-09T04:11:38.804Z,83.10
2018-02-09T04:14:06.514Z,82.70
2018-02-09T04:19:01.888Z,82.70
2018-02-09T04:21:29.590Z,81.10
2018-02-09T04:23:57.233Z,80.60
2018-02-09T04:26:24.883Z,79.80
2018-02-09T04:28:52.605Z,79.70
2018-02-09T04:31:21.096Z,79.50
2018-02-09T04:33:48.732Z,80.90
2018-02-09T04:36:16.500Z,81.40
2018-02-09T04:41:12.516Z,81.50
2018-02-09T04:43:40.237Z,82.00
2018-02-09T04:46:07.881Z,82.30
2018-02-09T04:48:35.532Z,82.70
2018-02-09T04:51:03.220Z,82.40
2018-02-09T04:53:30.890Z,82.00
2018-02-09T04:55:58.528Z,82.30
2018-02-09T04:58:26.250Z,82.20
2018-02-09T05:00:54.388Z,81.20
2018-02-09T05:03:22.882Z,79.80
2018-02-09T05:05:50.581Z,79.80
2018-02-09T05:08:18.237Z,80.40
2018-02-09T05:10:45.885Z,80.10
2018-02-09T05:13:14.504Z,79.10
2018-02-09T05:18:21.296Z,78.80
2018-02-09T05:20:48.937Z,78.50
2018-02-09T05:23:17.554Z,77.50
2018-02-09T05:25:45.250Z,76.90
2018-02-09T05:28:12.904Z,76.70
2018-02-09T05:30:40.546Z,76.30
2018-02-09T05:33:10.113Z,75.50
2018-02-09T05:35:37.734Z,76.30
2018-02-09T05:38:07.185Z,76.80
2018-02-09T05:40:34.901Z,76.20
2018-02-09T05:43:02.531Z,76.10
2018-02-09T05:45:30.190Z,76.00
2018-02-09T05:47:58.385Z,76.30
2018-02-09T05:50:25.983Z,78.00
2018-02-09T05:52:53.658Z,84.00
2018-02-09T05:57:48.950Z,86.00
2018-02-09T06:00:16.601Z,86.60
2018-02-09T06:07:48.731Z,85.70
2018-02-09T06:10:16.395Z,85.50
2018-02-09T06:12:44.047Z,85.10
2018-02-09T06:15:12.164Z,85.50
2018-02-09T06:17:39.837Z,85.80
2018-02-09T06:20:08.404Z,85.50
2018-02-09T06:22:36.128Z,86.20
2018-02-09T06:25:03.783Z,86.60
2018-02-09T06:27:31.460Z,86.80
2018-02-09T06:32:54.514Z,85.20
2018-02-09T06:35:22.979Z,84.80
2018-02-09T06:37:50.628Z,84.50
2018-02-09T06:40:18.321Z,84.70
2018-02-09T06:42:45.970Z,84.10
2018-02-09T06:47:54.481Z,83.30
2018-02-09T06:52:51.541Z,80.90
2018-02-09T06:57:52.293Z,80.30
2018-02-09T07:02:48.590Z,81.30
2018-02-09T07:05:17.185Z,82.00
2018-02-09T07:07:45.844Z,83.30
2018-02-09T07:10:13.477Z,82.20
2018-02-09T07:12:41.123Z,82.80
2018-02-09T07:15:08.864Z,82.80
2018-02-09T07:17:36.534Z,83.00
2018-02-09T07:22:31.953Z,83.10
2018-02-09T07:25:00.733Z,83.00
2018-02-09T07:27:28.342Z,83.20
2018-02-09T07:29:56.032Z,83.20
2018-02-09T07:32:23.675Z,82.40
2018-02-09T07:34:52.745Z,81.30
2018-02-09T07:39:48.072Z,81.50
2018-02-09T07:42:15.777Z,79.50
2018-02-09T07:44:43.998Z,79.30
2018-02-09T07:47:11.644Z,80.40
2018-02-09T07:49:39.285Z,78.00
2018-02-09T07:52:07.034Z,78.30
2018-02-09T07:54:34.675Z,79.80
2018-02-09T07:57:02.325Z,78.00
2018-02-09T07:59:30.884Z,77.50
2018-02-09T08:01:58.532Z,79.00
2018-02-09T08:04:26.959Z,80.40
2018-02-09T08:06:54.647Z,79.80
2018-02-09T08:09:23.509Z,78.60
2018-02-09T08:14:30.331Z,79.50
2018-02-09T08:16:57.982Z,78.30
2018-02-09T08:19:25.653Z,77.30
2018-02-09T08:21:53.753Z,76.70
2018-02-09T08:24:22.074Z,78.40
2018-02-09T08:26:49.643Z,78.10
2018-02-09T08:29:17.357Z,79.40
2018-02-09T08:31:44.996Z,79.80
2018-02-09T08:34:12.649Z,79.70
2018-02-09T08:36:40.376Z,79.10
2018-02-09T08:39:08.005Z,79.40
2018-02-09T08:44:03.406Z,79.50
2018-02-09T08:46:31.669Z,80.20
2018-02-09T08:48:59.293Z,81.70
2018-02-09T08:51:26.995Z,81.90
2018-02-09T08:53:54.691Z,82.30
2018-02-09T08:56:22.313Z,82.00
2018-02-09T08:58:50.012Z,81.90
2018-02-09T09:03:57.371Z,78.50
2018-02-09T09:06:25.008Z,77.10
2018-02-09T09:08:52.666Z,74.90
2018-02-09T09:11:20.368Z,74.50
2018-02-09T09:13:48.009Z,73.20
2018-02-09T09:18:44.140Z,77.10
2018-02-09T09:21:11.718Z,77.40
2018-02-09T09:23:39.374Z,76.40
2018-02-09T09:28:35.020Z,72.70
2018-02-09T09:31:03.497Z,71.80
2018-02-09T09:33:31.197Z,73.70
2018-02-09T09:35:58.857Z,69.10
2018-02-09T09:38:26.550Z,66.10
2018-02-09T09:40:54.265Z,64.80
2018-02-09T09:43:21.904Z,62.60
2018-02-09T09:45:49.548Z,61.70
2018-02-09T09:48:17.254Z,64.60
2018-02-09T09:50:44.902Z,62.00
2018-02-09T09:53:12.541Z,59.50
2018-02-09T09:55:40.251Z,58.80
2018-02-09T09:58:07.881Z,57.00
2018-02-09T10:00:35.548Z,55.70
2018-02-09T10:03:03.233Z,54.20
2018-02-09T10:05:30.909Z,55.00
2018-02-09T10:07:59.403Z,55.10
2018-02-09T10:10:27.154Z,54.60
2018-02-09T10:12:55.262Z,54.20
2018-02-09T10:15:22.897Z,54.40
2018-02-09T10:17:50.605Z,55.50
2018-02-09T10:20:18.268Z,55.00
2018-02-09T10:22:45.908Z,57.50
2018-02-09T10:27:55.480Z,52.10
2018-02-09T10:30:23.201Z,51.30
2018-02-09T10:32:50.845Z,50.70
2018-02-09T10:35:18.479Z,51.30
2018-02-09T10:37:46.226Z,54.10
2018-02-09T10:40:13.830Z,48.80
2018-02-09T10:42:41.472Z,52.40
2018-02-09T10:45:09.178Z,50.30
2018-02-09T10:47:36.832Z,48.90
2018-02-09T10:52:43.490Z,47.30
2018-02-09T10:55:11.609Z,47.40
2018-02-09T10:57:39.331Z,48.80
2018-02-09T11:05:02.316Z,48.60
2018-02-09T11:07:30.012Z,48.20
2018-02-09T11:09:57.679Z,47.00
2018-02-09T11:12:25.312Z,48.90
2018-02-09T11:14:53.006Z,44.10
2018-02-09T11:17:20.721Z,44.80
2018-02-09T11:19:48.330Z,48.00
2018-02-09T11:22:16.025Z,46.30
2018-02-09T11:24:43.685Z,46.80
2018-02-09T11:27:11.304Z,47.80
2018-02-09T11:29:39.029Z,46.90
2018-02-09T11:32:06.657Z,41.30
2018-02-09T11:34:34.294Z,40.50
2018-02-09T11:37:01.994Z,40.60
2018-02-09T11:39:29.640Z,39.10
2018-02-09T11:41:57.290Z,40.40
2018-02-09T11:44:24.991Z,44.20
2018-02-09T11:46:52.639Z,42.50
2018-02-09T11:49:20.270Z,44.20
2018-02-09T11:51:47.994Z,44.30
2018-02-09T11:54:15.635Z,43.60
2018-02-09T11:56:43.285Z,42.90
2018-02-09T11:59:10.983Z,40.20
2018-02-09T12:01:38.648Z,39.80
2018-02-09T12:04:06.823Z,37.50
2018-02-09T12:06:34.517Z,39.20
2018-02-09T12:09:02.208Z,38.50
2018-02-09T12:11:29.817Z,39.70
2018-02-09T12:16:36.632Z,38.60
2018-02-09T12:19:04.345Z,39.50
2018-02-09T12:21:31.991Z,39.80
2018-02-09T12:23:59.633Z,39.70
2018-02-09T12:26:27.849Z,42.20
2018-02-09T12:28:56.444Z,43.90
2018-02-09T12:31:24.084Z,42.90
2018-02-09T12:33:51.788Z,40.70
2018-02-09T12:36:19.429Z,39.30
2018-02-09T12:38:47.065Z,40.10
2018-02-09T12:41:14.764Z,38.60
2018-02-09T12:43:42.416Z,41.30
2018-02-09T12:46:10.046Z,38.40
2018-02-09T12:48:37.761Z,38.50
2018-02-09T12:51:05.408Z,39.30
2018-02-09T12:53:33.045Z,37.60
2018-02-09T12:56:00.736Z,39.80
2018-02-09T12:58:28.401Z,39.30
2018-02-09T13:00:56.038Z,39.20
2018-02-09T13:03:24.327Z,38.20
2018-02-09T13:05:51.965Z,37.10
2018-02-09T13:08:19.719Z,37.80
2018-02-09T13:10:47.347Z,39.30
2018-02-09T13:13:14.978Z,36.10
2018-02-09T13:15:42.634Z,36.90
2018-02-09T13:18:22.021Z,36.80
2018-02-09T13:20:49.658Z,37.40
2018-02-09T13:25:50.843Z,39.40
2018-02-09T13:28:30.308Z,39.40
2018-02-09T13:30:57.941Z,37.70
2018-02-09T13:36:15.090Z,38.00
2018-02-09T13:38:42.734Z,36.00
2018-02-09T13:41:10.374Z,36.30
2018-02-09T13:43:38.082Z,37.70
2018-02-09T13:46:05.721Z,38.90
2018-02-09T13:48:33.357Z,39.20
2018-02-09T13:51:01.061Z,39.60
2018-02-09T13:53:28.726Z,37.10
2018-02-09T13:55:56.364Z,39.40
2018-02-09T13:58:24.963Z,35.40
2018-02-09T14:00:53.551Z,36.40
2018-02-09T14:03:21.224Z,38.30
2018-02-09T14:05:48.916Z,37.90
2018-02-09T14:08:16.564Z,38.90
2018-02-09T14:10:45.394Z,37.80
2018-02-09T14:13:13.242Z,38.30
2018-02-09T14:15:40.917Z,38.70
2018-02-09T14:18:08.577Z,38.50
2018-02-09T14:20:36.352Z,38.10
2018-02-09T14:23:03.993Z,40.20
2018-02-09T14:25:32.480Z,39.40
2018-02-09T14:28:00.209Z,40.00
2018-02-09T14:30:27.855Z,40.30
2018-02-09T14:32:55.484Z,40.70
2018-02-09T14:35:23.190Z,41.50
2018-02-09T14:37:51.719Z,41.00
2018-02-09T14:40:19.344Z,40.40
2018-02-09T14:42:47.065Z,42.90
2018-02-09T14:45:14.692Z,43.80
2018-02-09T14:47:42.341Z,44.00
2018-02-09T14:50:10.054Z,43.70
2018-02-09T14:55:16.846Z,44.00
2018-02-09T14:57:44.494Z,43.50
2018-02-09T15:00:12.142Z,43.30
2018-02-09T15:02:40.485Z,43.60
2018-02-09T15:05:08.167Z,43.20
2018-02-09T15:07:35.789Z,43.80
2018-02-09T15:12:31.189Z,46.40
2018-02-09T15:14:59.785Z,46.50
2018-02-09T15:17:27.472Z,47.30
2018-02-09T15:19:55.116Z,47.30
2018-02-09T15:22:22.778Z,47.60
2018-02-09T15:24:50.492Z,47.90
2018-02-09T15:27:18.135Z,48.00
2018-02-09T15:29:45.778Z,47.90
2018-02-09T15:32:13.482Z,47.80
2018-02-09T15:34:41.867Z,47.60
2018-02-09T15:37:09.521Z,47.60
2018-02-09T15:39:37.203Z,48.00
2018-02-09T15:42:05.697Z,48.30
2018-02-09T15:44:33.356Z,48.40
2018-02-09T15:49:28.716Z,50.10
2018-02-09T15:51:57.188Z,50.70
2018-02-09T15:54:24.904Z,50.40
2018-02-09T15:56:52.533Z,50.70
2018-02-09T15:59:20.297Z,51.50
2018-02-09T16:01:47.989Z,51.70
2018-02-09T16:04:16.466Z,52.10
2018-02-09T16:06:44.101Z,52.60
2018-02-09T16:09:11.799Z,53.30
2018-02-09T16:11:39.438Z,54.00
2018-02-09T16:14:07.081Z,54.30
2018-02-09T16:16:35.734Z,55.20
2018-02-09T16:21:44.857Z,55.60
2018-02-09T16:26:40.287Z,56.20
2018-02-09T16:29:08.004Z,56.20
2018-02-09T16:31:36.481Z,56.70
2018-02-09T16:34:04.118Z,57.10
2018-02-09T16:36:31.811Z,57.60
2018-02-09T16:39:00.400Z,57.50
2018-02-09T16:41:28.063Z,57.60
2018-02-09T16:43:55.790Z,57.90
2018-02-09T16:46:23.465Z,58.00
2018-02-09T16:48:51.994Z,58.30
2018-02-09T16:53:47.341Z,58.50
2018-02-09T16:56:16.041Z,59.30
2018-02-09T16:58:43.741Z,59.80
2018-02-09T17:01:11.397Z,60.50
2018-02-09T17:03:39.052Z,60.70
2018-02-09T17:06:06.740Z,61.10
2018-02-09T17:08:35.113Z,60.80
2018-02-09T17:11:02.785Z,60.80
2018-02-09T17:13:30.493Z,60.90
2018-02-09T17:16:00.607Z,60.20
2018-02-09T17:18:28.253Z,60.40
2018-02-09T17:20:56.819Z,61.70
2018-02-09T17:23:24.468Z,61.50
2018-02-09T17:25:52.121Z,61.70
2018-02-09T17:30:48.230Z,64.10
2018-02-09T17:33:20.127Z,63.70
2018-02-09T17:35:48.369Z,63.40
2018-02-09T17:38:15.853Z,63.60
2018-02-09T17:40:43.508Z,64.40
2018-02-09T17:45:50.324Z,65.30
2018-02-09T17:48:18.048Z,65.30
2018-02-09T17:50:45.686Z,65.00
2018-02-09T17:53:13.338Z,64.80
2018-02-09T17:55:41.033Z,65.00
2018-02-09T17:58:09.768Z,64.90
2018-02-09T18:00:37.394Z,65.10
2018-02-09T18:03:05.957Z,65.50
2018-02-09T18:05:34.349Z,65.50
2018-02-09T18:10:29.705Z,66.20
2018-02-09T18:12:57.356Z,67.00
2018-02-09T18:15:25.934Z,67.40
2018-02-09T18:17:53.635Z,67.60
2018-02-09T18:20:21.346Z,68.30
2018-02-09T18:22:49.012Z,68.50
2018-02-09T18:25:16.730Z,68.80
2018-02-09T18:27:44.435Z,69.80
2018-02-09T18:30:12.101Z,69.10
2018-02-09T18:32:40.813Z,68.80
2018-02-09T18:35:08.413Z,68.70
2018-02-09T18:42:33.037Z,72.90
2018-02-09T18:45:00.715Z,72.70
2018-02-09T18:47:28.667Z,74.30
2018-02-09T18:49:56.284Z,74.20
2018-02-09T18:52:23.930Z,73.80
2018-02-09T18:54:51.679Z,74.10
2018-02-09T18:57:19.319Z,74.20
2018-02-09T18:59:46.958Z,75.00
2018-02-09T19:02:14.657Z,75.70
2018-02-09T19:07:22.345Z,77.40
2018-02-09T19:12:17.646Z,77.10
2018-02-09T19:14:45.378Z,77.10
2018-02-09T19:17:13.020Z,76.90
2018-02-09T19:19:40.653Z,77.40
2018-02-09T19:22:08.357Z,78.00
2018-02-09T19:24:36.045Z,79.50
2018-02-09T19:27:03.690Z,81.90
2018-02-09T19:29:31.400Z,82.60
2018-02-09T19:31:59.028Z,82.90
2018-02-09T19:34:26.674Z,82.40
2018-02-09T19:36:54.450Z,82.30
2018-02-09T19:39:22.158Z,82.60
2018-02-09T19:41:49.801Z,81.80
2018-02-09T19:46:45.132Z,81.70
2018-02-09T19:49:12.830Z,81.70
2018-02-09T19:54:08.145Z,82.70
2018-02-09T19:56:35.777Z,84.30
2018-02-09T19:59:03.507Z,84.50
2018-02-09T20:01:32.018Z,84.50
2018-02-09T20:03:59.667Z,84.30
2018-02-09T20:08:55.886Z,85.70
2018-02-09T20:11:23.522Z,85.70
2018-02-09T20:13:51.254Z,85.90
2018-02-09T20:16:19.273Z,85.90
2018-02-09T20:18:46.840Z,85.50
2018-02-09T20:21:14.639Z,85.10
2018-02-09T20:26:22.065Z,85.10
2018-02-09T20:28:52.017Z,85.30
2018-02-09T20:31:17.730Z,84.60
2018-02-09T20:36:13.033Z,85.80
2018-02-09T20:38:40.916Z,86.20
2018-02-09T20:41:08.572Z,86.50
2018-02-09T20:43:36.221Z,86.30
2018-02-09T20:46:03.864Z,85.70
2018-02-09T20:48:31.565Z,87.00
2018-02-09T20:50:59.358Z,87.40
2018-02-09T20:53:26.993Z,87.50
2018-02-09T20:55:55.253Z,87.10
2018-02-09T20:58:22.878Z,86.70
2018-02-09T21:00:50.544Z,86.80
2018-02-09T21:03:18.336Z,86.80
2018-02-09T21:08:13.590Z,87.60
2018-02-09T21:10:41.328Z,87.20
2018-02-09T21:13:09.592Z,87.20
2018-02-09T21:15:38.091Z,87.00
2018-02-09T21:18:05.793Z,87.10
2018-02-09T21:20:33.430Z,87.10
2018-02-09T21:23:01.170Z,87.30
2018-02-09T21:25:28.815Z,87.70
2018-02-09T21:27:56.460Z,87.80
2018-02-09T21:30:24.485Z,87.60
2018-02-09T21:32:52.188Z,88.00
2018-02-09T21:35:19.827Z,88.00
2018-02-09T21:37:47.466Z,87.70
2018-02-09T21:40:15.176Z,87.80
2018-02-09T21:42:42.831Z,87.90
2018-02-09T21:45:11.415Z,87.90
2018-02-09T21:47:39.149Z,87.60
2018-02-09T21:50:06.786Z,87.90
2018-02-09T21:55:13.569Z,87.20
2018-02-09T21:57:41.221Z,88.00
2018-02-09T22:02:36.548Z,88.30
2018-02-09T22:05:04.195Z,88.50
2018-02-09T22:07:31.834Z,88.50
2018-02-09T22:09:59.530Z,88.10
2018-02-09T22:14:54.820Z,88.30
2018-02-09T22:17:22.746Z,88.40
2018-02-09T22:19:50.316Z,88.00
2018-02-09T22:22:18.404Z,88.20
2018-02-09T22:24:46.105Z,88.60
2018-02-09T22:29:41.405Z,88.50
2018-02-09T22:32:09.130Z,88.40
2018-02-09T22:34:36.798Z,88.20
2018-02-09T22:37:04.430Z,88.20
2018-02-09T22:39:32.136Z,88.60
2018-02-09T22:42:00.433Z,89.10
2018-02-09T22:46:55.774Z,89.10
2018-02-09T22:49:23.443Z,88.70
2018-02-09T22:51:51.098Z,89.10
2018-02-09T22:56:50.520Z,89.20
2018-02-09T22:59:18.234Z,89.00
2018-02-09T23:01:45.869Z,89.00
2018-02-09T23:04:13.516Z,89.70
2018-02-09T23:06:41.240Z,89.50
2018-02-09T23:11:40.639Z,89.00
2018-02-09T23:16:48.526Z,88.50
2018-02-09T23:19:16.294Z,88.90
2018-02-09T23:21:43.928Z,88.70
2018-02-09T23:24:12.459Z,88.70
2018-02-09T23:26:41.168Z,88.50
2018-02-09T23:29:08.748Z,88.50
2018-02-09T23:31:38.716Z,89.70
2018-02-09T23:34:07.844Z,90.00
2018-02-09T23:36:36.309Z,90.40
2018-02-09T23:39:03.961Z,90.90
2018-02-09T23:41:32.510Z,91.00
2018-02-09T23:44:00.155Z,91.30
2018-02-09T23:46:30.833Z,91.00
2018-02-09T23:48:58.532Z,91.70
2018-02-09T23:51:26.181Z,91.40
2018-02-09T23:53:54.256Z,91.30
2018-02-09T23:56:24.156Z,91.20
2018-02-09T23:58:52.338Z,91.20
